sensor_id;sensor_type;location;lat;lon;timestamp;pressure;altitude;pressure_sealevel;temperature
65180;BMP280;51849;47.476;8.084;2022-09-21T00:00:51;97149.84;;;8.70
65180;BMP280;51849;47.476;8.084;2022-09-21T00:03:17;97148.72;;;8.62
65180;BMP280;51849;47.476;8.084;2022-09-21T00:05:43;97154.19;;;8.55
65180;BMP280;51849;47.476;8.084;2022-09-21T00:08:11;97151.00;;;8.60
65180;BMP280;51849;47.476;8.084;2022-09-21T00:10:37;97146.28;;;8.50
65180;BMP280;51849;47.476;8.084;2022-09-21T00:13:04;97149.00;;;8.46
65180;BMP280;51849;47.476;8.084;2022-09-21T00:15:30;97150.47;;;8.38
65180;BMP280;51849;47.476;8.084;2022-09-21T00:17:58;97153.78;;;8.30
65180;BMP280;51849;47.476;8.084;2022-09-21T00:20:25;97148.16;;;8.40
65180;BMP280;51849;47.476;8.084;2022-09-21T00:22:51;97147.31;;;8.43
65180;BMP280;51849;47.476;8.084;2022-09-21T00:25:18;97150.59;;;8.44
65180;BMP280;51849;47.476;8.084;2022-09-21T00:27:47;97146.13;;;8.44
65180;BMP280;51849;47.476;8.084;2022-09-21T00:30:14;97141.19;;;8.46
65180;BMP280;51849;47.476;8.084;2022-09-21T00:32:40;97145.25;;;8.38
65180;BMP280;51849;47.476;8.084;2022-09-21T00:35:05;97146.84;;;8.36
65180;BMP280;51849;47.476;8.084;2022-09-21T00:37:33;97144.69;;;8.43
65180;BMP280;51849;47.476;8.084;2022-09-21T00:39:59;97141.50;;;8.39
65180;BMP280;51849;47.476;8.084;2022-09-21T00:42:31;97141.19;;;8.37
65180;BMP280;51849;47.476;8.084;2022-09-21T00:44:57;97143.97;;;8.34
65180;BMP280;51849;47.476;8.084;2022-09-21T00:47:43;97145.56;;;8.40
65180;BMP280;51849;47.476;8.084;2022-09-21T00:50:13;97146.69;;;8.39
65180;BMP280;51849;47.476;8.084;2022-09-21T00:52:52;97148.16;;;8.22
65180;BMP280;51849;47.476;8.084;2022-09-21T00:55:26;97138.59;;;8.19
65180;BMP280;51849;47.476;8.084;2022-09-21T00:57:55;97145.56;;;8.22
65180;BMP280;51849;47.476;8.084;2022-09-21T01:00:21;97142.78;;;8.26
65180;BMP280;51849;47.476;8.084;2022-09-21T01:02:47;97147.44;;;8.13
65180;BMP280;51849;47.476;8.084;2022-09-21T01:05:13;97149.31;;;8.03
65180;BMP280;51849;47.476;8.084;2022-09-21T01:07:42;97150.16;;;8.00
65180;BMP280;51849;47.476;8.084;2022-09-21T01:10:14;97145.25;;;8.02
65180;BMP280;51849;47.476;8.084;2022-09-21T01:18:03;97141.34;;;7.89
65180;BMP280;51849;47.476;8.084;2022-09-21T01:28:47;97137.72;;;7.68
65180;BMP280;51849;47.476;8.084;2022-09-21T01:31:17;97136.78;;;7.53
65180;BMP280;51849;47.476;8.084;2022-09-21T01:33:50;97132.03;;;7.60
65180;BMP280;51849;47.476;8.084;2022-09-21T01:36:21;97133.16;;;7.50
65180;BMP280;51849;47.476;8.084;2022-09-21T01:38:53;97141.72;;;7.60
65180;BMP280;51849;47.476;8.084;2022-09-21T01:41:22;97140.88;;;7.72
65180;BMP280;51849;47.476;8.084;2022-09-21T01:43:54;97140.84;;;7.63
65180;BMP280;51849;47.476;8.084;2022-09-21T01:46:25;97143.16;;;7.61
65180;BMP280;51849;47.476;8.084;2022-09-21T01:48:55;97139.66;;;7.55
65180;BMP280;51849;47.476;8.084;2022-09-21T01:51:25;97145.75;;;7.61
65180;BMP280;51849;47.476;8.084;2022-09-21T01:53:55;97135.91;;;7.47
65180;BMP280;51849;47.476;8.084;2022-09-21T01:56:32;97135.63;;;7.45
65180;BMP280;51849;47.476;8.084;2022-09-21T01:59:08;97142.78;;;7.32
65180;BMP280;51849;47.476;8.084;2022-09-21T02:02:00;97142.78;;;7.32
65180;BMP280;51849;47.476;8.084;2022-09-21T02:04:25;97142.03;;;7.31
65180;BMP280;51849;47.476;8.084;2022-09-21T02:06:53;97139.88;;;7.30
65180;BMP280;51849;47.476;8.084;2022-09-21T02:09:19;97142.47;;;7.30
65180;BMP280;51849;47.476;8.084;2022-09-21T02:11:45;97143.31;;;7.27
65180;BMP280;51849;47.476;8.084;2022-09-21T02:14:16;97137.59;;;7.32
65180;BMP280;51849;47.476;8.084;2022-09-21T02:25:12;97139.56;;;7.19
65180;BMP280;51849;47.476;8.084;2022-09-21T02:27:51;97135.19;;;7.16
65180;BMP280;51849;47.476;8.084;2022-09-21T02:30:20;97133.19;;;7.20
65180;BMP280;51849;47.476;8.084;2022-09-21T02:41:13;97134.03;;;7.08
65180;BMP280;51849;47.476;8.084;2022-09-21T02:44:01;97125.94;;;7.06
65180;BMP280;51849;47.476;8.084;2022-09-21T02:46:34;97133.59;;;7.09
65180;BMP280;51849;47.476;8.084;2022-09-21T02:49:07;97137.53;;;7.14
65180;BMP280;51849;47.476;8.084;2022-09-21T02:51:43;97127.19;;;7.23
65180;BMP280;51849;47.476;8.084;2022-09-21T02:54:13;97129.47;;;7.21
65180;BMP280;51849;47.476;8.084;2022-09-21T02:56:41;97136.66;;;7.17
65180;BMP280;51849;47.476;8.084;2022-09-21T02:59:08;97126.84;;;7.12
65180;BMP280;51849;47.476;8.084;2022-09-21T03:01:35;97127.38;;;7.07
65180;BMP280;51849;47.476;8.084;2022-09-21T03:04:01;97126.06;;;7.02
65180;BMP280;51849;47.476;8.084;2022-09-21T03:06:27;97126.06;;;7.02
65180;BMP280;51849;47.476;8.084;2022-09-21T03:08:52;97119.09;;;6.90
65180;BMP280;51849;47.476;8.084;2022-09-21T03:11:19;97123.28;;;6.88
65180;BMP280;51849;47.476;8.084;2022-09-21T03:13:45;97121.75;;;6.78
65180;BMP280;51849;47.476;8.084;2022-09-21T03:16:11;97116.44;;;6.81
65180;BMP280;51849;47.476;8.084;2022-09-21T03:18:37;97120.19;;;6.80
65180;BMP280;51849;47.476;8.084;2022-09-21T03:21:05;97114.59;;;6.91
65180;BMP280;51849;47.476;8.084;2022-09-21T03:23:33;97108.72;;;6.90
65180;BMP280;51849;47.476;8.084;2022-09-21T03:25:59;97123.41;;;6.93
65180;BMP280;51849;47.476;8.084;2022-09-21T03:28:24;97116.84;;;6.80
65180;BMP280;51849;47.476;8.084;2022-09-21T03:30:50;97113.50;;;6.70
65180;BMP280;51849;47.476;8.084;2022-09-21T03:33:18;97118.75;;;6.57
65180;BMP280;51849;47.476;8.084;2022-09-21T03:35:44;97120.81;;;6.62
65180;BMP280;51849;47.476;8.084;2022-09-21T03:38:10;97124.56;;;6.61
65180;BMP280;51849;47.476;8.084;2022-09-21T03:40:38;97125.91;;;6.53
65180;BMP280;51849;47.476;8.084;2022-09-21T03:43:04;97126.22;;;6.55
65180;BMP280;51849;47.476;8.084;2022-09-21T03:45:30;97124.41;;;6.65
65180;BMP280;51849;47.476;8.084;2022-09-21T03:47:57;97122.31;;;6.51
65180;BMP280;51849;47.476;8.084;2022-09-21T03:50:25;97128.13;;;6.42
65180;BMP280;51849;47.476;8.084;2022-09-21T03:52:50;97129.59;;;6.43
65180;BMP280;51849;47.476;8.084;2022-09-21T03:55:16;97136.28;;;6.53
65180;BMP280;51849;47.476;8.084;2022-09-21T03:57:42;97130.22;;;6.47
65180;BMP280;51849;47.476;8.084;2022-09-21T04:00:08;97126.78;;;6.50
65180;BMP280;51849;47.476;8.084;2022-09-21T04:02:35;97130.22;;;6.47
65180;BMP280;51849;47.476;8.084;2022-09-21T04:05:02;97129.09;;;6.57
65180;BMP280;51849;47.476;8.084;2022-09-21T04:07:30;97131.63;;;6.48
65180;BMP280;51849;47.476;8.084;2022-09-21T04:10:10;97130.09;;;6.51
65180;BMP280;51849;47.476;8.084;2022-09-21T04:12:38;97137.44;;;6.52
65180;BMP280;51849;47.476;8.084;2022-09-21T04:15:18;97139.41;;;6.48
65180;BMP280;51849;47.476;8.084;2022-09-21T04:17:45;97136.81;;;6.48
65180;BMP280;51849;47.476;8.084;2022-09-21T04:20:11;97136.81;;;6.48
65180;BMP280;51849;47.476;8.084;2022-09-21T04:22:37;97131.50;;;6.52
65180;BMP280;51849;47.476;8.084;2022-09-21T04:25:04;97133.75;;;6.41
65180;BMP280;51849;47.476;8.084;2022-09-21T04:27:33;97135.88;;;6.55
65180;BMP280;51849;47.476;8.084;2022-09-21T04:29:59;97132.00;;;6.59
65180;BMP280;51849;47.476;8.084;2022-09-21T04:32:26;97131.31;;;6.59
65180;BMP280;51849;47.476;8.084;2022-09-21T04:34:52;97133.41;;;6.51
65180;BMP280;51849;47.476;8.084;2022-09-21T04:37:17;97137.25;;;6.47
65180;BMP280;51849;47.476;8.084;2022-09-21T04:39:43;97137.53;;;6.70
65180;BMP280;51849;47.476;8.084;2022-09-21T04:42:09;97135.16;;;6.76
65180;BMP280;51849;47.476;8.084;2022-09-21T04:44:35;97136.53;;;6.90
65180;BMP280;51849;47.476;8.084;2022-09-21T04:47:00;97140.47;;;6.72
65180;BMP280;51849;47.476;8.084;2022-09-21T04:49:26;97139.69;;;6.63
65180;BMP280;51849;47.476;8.084;2022-09-21T04:51:52;97140.69;;;6.65
65180;BMP280;51849;47.476;8.084;2022-09-21T04:54:18;97140.69;;;6.65
65180;BMP280;51849;47.476;8.084;2022-09-21T04:56:43;97143.53;;;6.58
65180;BMP280;51849;47.476;8.084;2022-09-21T04:59:09;97142.38;;;6.59
65180;BMP280;51849;47.476;8.084;2022-09-21T05:01:35;97150.22;;;6.47
65180;BMP280;51849;47.476;8.084;2022-09-21T05:04:01;97146.19;;;6.46
65180;BMP280;51849;47.476;8.084;2022-09-21T05:06:30;97147.38;;;6.32
65180;BMP280;51849;47.476;8.084;2022-09-21T05:08:56;97152.63;;;6.29
65180;BMP280;51849;47.476;8.084;2022-09-21T05:11:40;97151.94;;;6.28
65180;BMP280;51849;47.476;8.084;2022-09-21T05:14:07;97153.59;;;6.35
65180;BMP280;51849;47.476;8.084;2022-09-21T05:16:33;97155.75;;;6.36
65180;BMP280;51849;47.476;8.084;2022-09-21T05:18:59;97150.88;;;6.38
65180;BMP280;51849;47.476;8.084;2022-09-21T05:21:24;97148.78;;;6.46
65180;BMP280;51849;47.476;8.084;2022-09-21T05:23:50;97154.78;;;6.43
65180;BMP280;51849;47.476;8.084;2022-09-21T05:26:16;97161.41;;;6.44
65180;BMP280;51849;47.476;8.084;2022-09-21T05:28:42;97153.22;;;6.45
65180;BMP280;51849;47.476;8.084;2022-09-21T05:33:53;97156.13;;;6.47
65180;BMP280;51849;47.476;8.084;2022-09-21T05:38:59;97151.88;;;6.41
65180;BMP280;51849;47.476;8.084;2022-09-21T05:41:25;97156.25;;;6.44
65180;BMP280;51849;47.476;8.084;2022-09-21T05:43:54;97164.66;;;6.35
65180;BMP280;51849;47.476;8.084;2022-09-21T05:46:39;97156.56;;;6.33
65180;BMP280;51849;47.476;8.084;2022-09-21T05:57:14;97171.25;;;6.49
65180;BMP280;51849;47.476;8.084;2022-09-21T06:00:00;97173.94;;;6.45
65180;BMP280;51849;47.476;8.084;2022-09-21T06:02:56;97168.94;;;6.51
65180;BMP280;51849;47.476;8.084;2022-09-21T06:05:26;97164.31;;;6.46
65180;BMP280;51849;47.476;8.084;2022-09-21T06:07:53;97172.50;;;6.44
65180;BMP280;51849;47.476;8.084;2022-09-21T06:10:19;97179.13;;;6.45
65180;BMP280;51849;47.476;8.084;2022-09-21T06:12:45;97175.28;;;6.50
65180;BMP280;51849;47.476;8.084;2022-09-21T06:15:12;97186.38;;;6.50
65180;BMP280;51849;47.476;8.084;2022-09-21T06:17:38;97175.88;;;6.54
65180;BMP280;51849;47.476;8.084;2022-09-21T06:20:05;97177.09;;;6.62
65180;BMP280;51849;47.476;8.084;2022-09-21T06:22:32;97167.81;;;6.73
65180;BMP280;51849;47.476;8.084;2022-09-21T06:24:58;97168.06;;;6.88
65180;BMP280;51849;47.476;8.084;2022-09-21T06:27:27;97170.38;;;6.95
65180;BMP280;51849;47.476;8.084;2022-09-21T06:29:53;97173.91;;;7.01
65180;BMP280;51849;47.476;8.084;2022-09-21T06:32:19;97169.22;;;7.18
65180;BMP280;51849;47.476;8.084;2022-09-21T06:34:44;97169.31;;;7.36
65180;BMP280;51849;47.476;8.084;2022-09-21T06:37:10;97172.97;;;7.47
65180;BMP280;51849;47.476;8.084;2022-09-21T06:39:36;97175.00;;;7.61
65180;BMP280;51849;47.476;8.084;2022-09-21T06:42:01;97170.31;;;7.78
65180;BMP280;51849;47.476;8.084;2022-09-21T06:44:27;97178.88;;;7.97
65180;BMP280;51849;47.476;8.084;2022-09-21T06:46:54;97169.38;;;8.12
65180;BMP280;51849;47.476;8.084;2022-09-21T06:49:20;97171.84;;;8.24
65180;BMP280;51849;47.476;8.084;2022-09-21T06:51:47;97173.84;;;8.38
65180;BMP280;51849;47.476;8.084;2022-09-21T06:54:12;97176.28;;;8.51
65180;BMP280;51849;47.476;8.084;2022-09-21T06:56:38;97174.53;;;8.66
65180;BMP280;51849;47.476;8.084;2022-09-21T06:59:04;97182.31;;;8.75
65180;BMP280;51849;47.476;8.084;2022-09-21T07:01:29;97185.06;;;8.90
65180;BMP280;51849;47.476;8.084;2022-09-21T07:03:55;97181.56;;;9.02
65180;BMP280;51849;47.476;8.084;2022-09-21T07:06:23;97176.47;;;9.16
65180;BMP280;51849;47.476;8.084;2022-09-21T07:08:52;97172.22;;;9.28
65180;BMP280;51849;47.476;8.084;2022-09-21T07:11:20;97181.25;;;9.41
65180;BMP280;51849;47.476;8.084;2022-09-21T07:13:48;97177.16;;;9.58
65180;BMP280;51849;47.476;8.084;2022-09-21T07:16:14;97168.66;;;9.72
65180;BMP280;51849;47.476;8.084;2022-09-21T07:18:40;97177.41;;;9.84
65180;BMP280;51849;47.476;8.084;2022-09-21T07:21:08;97169.97;;;10.01
65180;BMP280;51849;47.476;8.084;2022-09-21T07:23:34;97175.47;;;10.17
65180;BMP280;51849;47.476;8.084;2022-09-21T07:26:06;97175.91;;;10.16
65180;BMP280;51849;47.476;8.084;2022-09-21T07:28:34;97173.06;;;10.28
65180;BMP280;51849;47.476;8.084;2022-09-21T07:31:26;97178.03;;;10.41
65180;BMP280;51849;47.476;8.084;2022-09-21T07:33:56;97173.97;;;10.54
65180;BMP280;51849;47.476;8.084;2022-09-21T07:36:22;97172.00;;;10.64
65180;BMP280;51849;47.476;8.084;2022-09-21T07:38:48;97164.47;;;10.80
65180;BMP280;51849;47.476;8.084;2022-09-21T07:41:14;97170.94;;;10.85
65180;BMP280;51849;47.476;8.084;2022-09-21T07:43:40;97165.13;;;11.10
65180;BMP280;51849;47.476;8.084;2022-09-21T07:46:07;97171.94;;;11.22
65180;BMP280;51849;47.476;8.084;2022-09-21T07:48:33;97174.28;;;11.35
65180;BMP280;51849;47.476;8.084;2022-09-21T07:51:03;97174.34;;;11.40
65180;BMP280;51849;47.476;8.084;2022-09-21T07:53:36;97180.69;;;11.54
65180;BMP280;51849;47.476;8.084;2022-09-21T07:56:04;97163.13;;;11.54
65180;BMP280;51849;47.476;8.084;2022-09-21T07:58:30;97166.56;;;11.66
65180;BMP280;51849;47.476;8.084;2022-09-21T08:01:15;97172.06;;;11.88
65180;BMP280;51849;47.476;8.084;2022-09-21T08:03:40;97165.06;;;11.99
65180;BMP280;51849;47.476;8.084;2022-09-21T08:06:06;97170.41;;;12.10
65180;BMP280;51849;47.476;8.084;2022-09-21T08:08:34;97164.97;;;12.14
65180;BMP280;51849;47.476;8.084;2022-09-21T08:11:04;97159.09;;;12.19
65180;BMP280;51849;47.476;8.084;2022-09-21T08:13:30;97160.47;;;12.14
65180;BMP280;51849;47.476;8.084;2022-09-21T08:16:00;97161.31;;;12.26
65180;BMP280;51849;47.476;8.084;2022-09-21T08:18:27;97163.09;;;12.40
65180;BMP280;51849;47.476;8.084;2022-09-21T08:20:59;97168.84;;;12.44
65180;BMP280;51849;47.476;8.084;2022-09-21T08:23:26;97163.44;;;12.53
65180;BMP280;51849;47.476;8.084;2022-09-21T08:26:03;97165.34;;;12.53
65180;BMP280;51849;47.476;8.084;2022-09-21T08:28:31;97162.75;;;12.58
65180;BMP280;51849;47.476;8.084;2022-09-21T08:31:00;97161.16;;;12.66
65180;BMP280;51849;47.476;8.084;2022-09-21T08:33:26;97161.66;;;12.70
65180;BMP280;51849;47.476;8.084;2022-09-21T08:35:58;97165.34;;;12.84
65180;BMP280;51849;47.476;8.084;2022-09-21T08:38:24;97168.88;;;12.81
65180;BMP280;51849;47.476;8.084;2022-09-21T08:40:51;97158.88;;;12.79
65180;BMP280;51849;47.476;8.084;2022-09-21T08:45:49;97158.31;;;13.01
65180;BMP280;51849;47.476;8.084;2022-09-21T08:48:22;97159.78;;;13.07
65180;BMP280;51849;47.476;8.084;2022-09-21T08:50:53;97166.53;;;13.19
65180;BMP280;51849;47.476;8.084;2022-09-21T08:53:27;97171.47;;;13.12
65180;BMP280;51849;47.476;8.084;2022-09-21T08:55:58;97159.44;;;13.31
65180;BMP280;51849;47.476;8.084;2022-09-21T08:58:29;97161.59;;;13.32
65180;BMP280;51849;47.476;8.084;2022-09-21T09:04:03;97167.19;;;13.68
65180;BMP280;51849;47.476;8.084;2022-09-21T09:07:00;97158.88;;;13.75
65180;BMP280;51849;47.476;8.084;2022-09-21T09:17:42;97149.88;;;14.09
65180;BMP280;51849;47.476;8.084;2022-09-21T09:20:17;97146.34;;;14.23
65180;BMP280;51849;47.476;8.084;2022-09-21T09:23:02;97143.00;;;14.50
65180;BMP280;51849;47.476;8.084;2022-09-21T09:25:36;97143.50;;;14.43
65180;BMP280;51849;47.476;8.084;2022-09-21T09:28:13;97146.38;;;14.61
65180;BMP280;51849;47.476;8.084;2022-09-21T09:30:40;97142.31;;;14.66
65180;BMP280;51849;47.476;8.084;2022-09-21T09:33:29;97137.97;;;14.74
65180;BMP280;51849;47.476;8.084;2022-09-21T09:36:04;97137.50;;;14.81
65180;BMP280;51849;47.476;8.084;2022-09-21T09:47:05;97126.16;;;15.14
65180;BMP280;51849;47.476;8.084;2022-09-21T09:49:58;97125.69;;;15.15
65180;BMP280;51849;47.476;8.084;2022-09-21T09:52:26;97118.50;;;15.21
65180;BMP280;51849;47.476;8.084;2022-09-21T09:54:52;97107.28;;;15.21
65180;BMP280;51849;47.476;8.084;2022-09-21T09:57:27;97110.13;;;15.23
65180;BMP280;51849;47.476;8.084;2022-09-21T09:59:57;97109.91;;;15.21
65180;BMP280;51849;47.476;8.084;2022-09-21T10:02:26;97110.09;;;15.34
65180;BMP280;51849;47.476;8.084;2022-09-21T10:04:57;97114.06;;;15.51
65180;BMP280;51849;47.476;8.084;2022-09-21T10:07:39;97099.19;;;15.59
65180;BMP280;51849;47.476;8.084;2022-09-21T10:10:22;97106.56;;;15.66
65180;BMP280;51849;47.476;8.084;2022-09-21T10:12:48;97104.59;;;15.78
65180;BMP280;51849;47.476;8.084;2022-09-21T10:15:19;97111.34;;;15.68
65180;BMP280;51849;47.476;8.084;2022-09-21T10:17:46;97103.91;;;15.72
65180;BMP280;51849;47.476;8.084;2022-09-21T10:20:16;97091.72;;;15.69
65180;BMP280;51849;47.476;8.084;2022-09-21T10:22:47;97112.69;;;15.80
65180;BMP280;51849;47.476;8.084;2022-09-21T10:25:15;97105.88;;;15.60
65180;BMP280;51849;47.476;8.084;2022-09-21T10:27:45;97100.28;;;15.75
65180;BMP280;51849;47.476;8.084;2022-09-21T10:30:38;97085.03;;;15.68
65180;BMP280;51849;47.476;8.084;2022-09-21T10:33:18;97085.28;;;15.64
65180;BMP280;51849;47.476;8.084;2022-09-21T10:35:51;97084.28;;;15.73
65180;BMP280;51849;47.476;8.084;2022-09-21T10:38:24;97080.81;;;15.94
65180;BMP280;51849;47.476;8.084;2022-09-21T10:40:54;97072.41;;;15.96
65180;BMP280;51849;47.476;8.084;2022-09-21T10:43:33;97080.25;;;16.01
65180;BMP280;51849;47.476;8.084;2022-09-21T10:46:01;97077.22;;;15.92
65180;BMP280;51849;47.476;8.084;2022-09-21T10:48:27;97061.16;;;15.95
65180;BMP280;51849;47.476;8.084;2022-09-21T10:50:54;97075.03;;;15.96
65180;BMP280;51849;47.476;8.084;2022-09-21T10:53:31;97068.28;;;16.00
65180;BMP280;51849;47.476;8.084;2022-09-21T10:58:29;97075.84;;;16.15
65180;BMP280;51849;47.476;8.084;2022-09-21T11:01:08;97061.53;;;16.34
65180;BMP280;51849;47.476;8.084;2022-09-21T11:06:14;97057.66;;;16.41
65180;BMP280;51849;47.476;8.084;2022-09-21T11:11:34;97072.38;;;16.74
65180;BMP280;51849;47.476;8.084;2022-09-21T11:16:35;97062.06;;;16.76
65180;BMP280;51849;47.476;8.084;2022-09-21T11:19:27;97057.25;;;16.55
65180;BMP280;51849;47.476;8.084;2022-09-21T11:22:00;97052.09;;;16.44
65180;BMP280;51849;47.476;8.084;2022-09-21T11:25:32;97059.72;;;16.48
65180;BMP280;51849;47.476;8.084;2022-09-21T11:27:39;97046.94;;;16.57
65180;BMP280;51849;47.476;8.084;2022-09-21T11:30:12;97048.31;;;16.83
65180;BMP280;51849;47.476;8.084;2022-09-21T11:43:50;97041.75;;;17.08
65180;BMP280;51849;47.476;8.084;2022-09-21T12:08:27;97018.88;;;17.34
65180;BMP280;51849;47.476;8.084;2022-09-21T12:11:01;97023.84;;;17.38
65180;BMP280;51849;47.476;8.084;2022-09-21T12:16:23;97008.09;;;17.32
65180;BMP280;51849;47.476;8.084;2022-09-21T12:22:07;97016.28;;;17.16
65180;BMP280;51849;47.476;8.084;2022-09-21T12:24:39;97021.91;;;17.07
65180;BMP280;51849;47.476;8.084;2022-09-21T12:29:48;97014.13;;;17.14
65180;BMP280;51849;47.476;8.084;2022-09-21T12:35:14;97010.59;;;17.12
65180;BMP280;51849;47.476;8.084;2022-09-21T12:37:46;97002.00;;;17.24
65180;BMP280;51849;47.476;8.084;2022-09-21T12:43:25;96990.13;;;17.49
65180;BMP280;51849;47.476;8.084;2022-09-21T12:46:19;97001.53;;;17.39
65180;BMP280;51849;47.476;8.084;2022-09-21T12:48:46;96996.41;;;17.28
65180;BMP280;51849;47.476;8.084;2022-09-21T12:51:26;96986.69;;;17.23
65180;BMP280;51849;47.476;8.084;2022-09-21T12:54:00;96992.84;;;17.44
65180;BMP280;51849;47.476;8.084;2022-09-21T12:56:50;96991.97;;;17.54
65180;BMP280;51849;47.476;8.084;2022-09-21T13:02:20;96976.78;;;17.99
65180;BMP280;51849;47.476;8.084;2022-09-21T13:08:09;96987.06;;;18.03
65180;BMP280;51849;47.476;8.084;2022-09-21T13:16:05;96996.38;;;17.65
65180;BMP280;51849;47.476;8.084;2022-09-21T13:18:37;96989.75;;;17.27
65180;BMP280;51849;47.476;8.084;2022-09-21T13:21:21;96980.75;;;17.35
65180;BMP280;51849;47.476;8.084;2022-09-21T13:26:30;96973.44;;;17.73
65180;BMP280;51849;47.476;8.084;2022-09-21T13:36:40;96974.22;;;17.94
65180;BMP280;51849;47.476;8.084;2022-09-21T13:41:33;96970.28;;;17.87
65180;BMP280;51849;47.476;8.084;2022-09-21T13:44:02;96973.63;;;18.01
65180;BMP280;51849;47.476;8.084;2022-09-21T13:54:19;96969.19;;;18.09
65180;BMP280;51849;47.476;8.084;2022-09-21T13:56:46;96963.28;;;18.03
65180;BMP280;51849;47.476;8.084;2022-09-21T13:59:23;96981.34;;;17.86
65180;BMP280;51849;47.476;8.084;2022-09-21T14:01:50;96973.59;;;17.49
65180;BMP280;51849;47.476;8.084;2022-09-21T14:04:28;96972.91;;;17.30
65180;BMP280;51849;47.476;8.084;2022-09-21T14:06:56;96976.56;;;17.08
65180;BMP280;51849;47.476;8.084;2022-09-21T14:09:27;96967.72;;;17.24
65180;BMP280;51849;47.476;8.084;2022-09-21T14:11:57;96965.06;;;17.43
65180;BMP280;51849;47.476;8.084;2022-09-21T14:14:32;96965.50;;;17.60
65180;BMP280;51849;47.476;8.084;2022-09-21T14:17:03;96969.34;;;17.72
65180;BMP280;51849;47.476;8.084;2022-09-21T14:24:35;96967.28;;;17.52
65180;BMP280;51849;47.476;8.084;2022-09-21T14:27:12;96967.00;;;17.55
65180;BMP280;51849;47.476;8.084;2022-09-21T14:32:20;96971.00;;;17.88
65180;BMP280;51849;47.476;8.084;2022-09-21T14:34:50;96965.50;;;17.99
65180;BMP280;51849;47.476;8.084;2022-09-21T14:37:31;96962.88;;;17.99
65180;BMP280;51849;47.476;8.084;2022-09-21T14:40:03;96964.31;;;18.00
65180;BMP280;51849;47.476;8.084;2022-09-21T14:42:30;96962.78;;;18.04
65180;BMP280;51849;47.476;8.084;2022-09-21T14:44:59;96974.75;;;18.05
65180;BMP280;51849;47.476;8.084;2022-09-21T14:47:59;96963.66;;;17.94
65180;BMP280;51849;47.476;8.084;2022-09-21T14:50:38;96969.47;;;17.79
65180;BMP280;51849;47.476;8.084;2022-09-21T15:07:30;96969.78;;;17.76
65180;BMP280;51849;47.476;8.084;2022-09-21T15:10:56;96963.09;;;17.75
65180;BMP280;51849;47.476;8.084;2022-09-21T15:13:51;96960.94;;;17.73
65180;BMP280;51849;47.476;8.084;2022-09-21T15:16:27;96963.84;;;17.57
65180;BMP280;51849;47.476;8.084;2022-09-21T15:21:44;96972.06;;;17.40
65180;BMP280;51849;47.476;8.084;2022-09-21T15:24:31;96965.50;;;17.28
65180;BMP280;51849;47.476;8.084;2022-09-21T15:27:09;96956.56;;;17.18
65180;BMP280;51849;47.476;8.084;2022-09-21T15:29:37;96961.41;;;17.14
65180;BMP280;51849;47.476;8.084;2022-09-21T15:32:05;96951.50;;;17.20
65180;BMP280;51849;47.476;8.084;2022-09-21T15:34:31;96967.00;;;17.24
65180;BMP280;51849;47.476;8.084;2022-09-21T15:37:13;96959.09;;;17.24
65180;BMP280;51849;47.476;8.084;2022-09-21T15:39:40;96972.28;;;17.24
65180;BMP280;51849;47.476;8.084;2022-09-21T15:44:36;96964.69;;;17.20
65180;BMP280;51849;47.476;8.084;2022-09-21T15:47:06;96972.19;;;17.16
65180;BMP280;51849;47.476;8.084;2022-09-21T15:49:33;96958.41;;;16.92
65180;BMP280;51849;47.476;8.084;2022-09-21T15:54:59;96979.13;;;17.01
65180;BMP280;51849;47.476;8.084;2022-09-21T16:00:16;96985.53;;;16.87
65180;BMP280;51849;47.476;8.084;2022-09-21T16:03:02;96988.94;;;16.82
65180;BMP280;51849;47.476;8.084;2022-09-21T16:05:41;96987.06;;;16.77
65180;BMP280;51849;47.476;8.084;2022-09-21T16:14:12;96982.53;;;16.58
65180;BMP280;51849;47.476;8.084;2022-09-21T16:20:04;96987.47;;;16.62
65180;BMP280;51849;47.476;8.084;2022-09-21T16:22:39;96987.47;;;16.62
65180;BMP280;51849;47.476;8.084;2022-09-21T16:25:33;96986.28;;;16.44
65180;BMP280;51849;47.476;8.084;2022-09-21T16:28:25;96983.22;;;16.40
65180;BMP280;51849;47.476;8.084;2022-09-21T16:30:51;96995.69;;;16.34
65180;BMP280;51849;47.476;8.084;2022-09-21T16:35:58;96997.69;;;16.28
65180;BMP280;51849;47.476;8.084;2022-09-21T16:38:26;97000.84;;;16.21
65180;BMP280;51849;47.476;8.084;2022-09-21T16:40:51;96999.00;;;16.16
65180;BMP280;51849;47.476;8.084;2022-09-21T16:43:18;96992.41;;;16.10
65180;BMP280;51849;47.476;8.084;2022-09-21T16:45:45;97002.19;;;16.09
65180;BMP280;51849;47.476;8.084;2022-09-21T16:48:12;97002.00;;;16.02
65180;BMP280;51849;47.476;8.084;2022-09-21T16:50:37;96999.00;;;15.92
65180;BMP280;51849;47.476;8.084;2022-09-21T16:53:03;97001.38;;;15.90
65180;BMP280;51849;47.476;8.084;2022-09-21T16:55:29;97003.34;;;15.84
65180;BMP280;51849;47.476;8.084;2022-09-21T16:57:55;97001.47;;;15.79
65180;BMP280;51849;47.476;8.084;2022-09-21T17:00:21;97008.50;;;15.71
65180;BMP280;51849;47.476;8.084;2022-09-21T17:02:47;97012.31;;;15.70
65180;BMP280;51849;47.476;8.084;2022-09-21T17:05:14;97012.31;;;15.70
65180;BMP280;51849;47.476;8.084;2022-09-21T17:07:56;97007.41;;;15.61
65180;BMP280;51849;47.476;8.084;2022-09-21T17:10:29;97008.84;;;15.57
65180;BMP280;51849;47.476;8.084;2022-09-21T17:12:56;97014.41;;;15.48
65180;BMP280;51849;47.476;8.084;2022-09-21T17:15:23;97013.25;;;15.43
65180;BMP280;51849;47.476;8.084;2022-09-21T17:17:49;97015.66;;;15.41
65180;BMP280;51849;47.476;8.084;2022-09-21T17:20:25;97015.91;;;15.38
65180;BMP280;51849;47.476;8.084;2022-09-21T17:22:53;97014.75;;;15.33
65180;BMP280;51849;47.476;8.084;2022-09-21T17:25:18;97011.00;;;15.23
65180;BMP280;51849;47.476;8.084;2022-09-21T17:27:44;97024.41;;;15.14
65180;BMP280;51849;47.476;8.084;2022-09-21T17:30:11;97021.09;;;15.08
65180;BMP280;51849;47.476;8.084;2022-09-21T17:32:37;97020.91;;;15.01
65180;BMP280;51849;47.476;8.084;2022-09-21T17:37:43;97020.03;;;14.76
65180;BMP280;51849;47.476;8.084;2022-09-21T17:40:09;97020.78;;;14.60
65180;BMP280;51849;47.476;8.084;2022-09-21T17:42:38;97024.19;;;14.44
65180;BMP280;51849;47.476;8.084;2022-09-21T17:47:37;97019.69;;;14.11
65180;BMP280;51849;47.476;8.084;2022-09-21T17:52:35;97022.81;;;13.88
65180;BMP280;51849;47.476;8.084;2022-09-21T17:55:22;97032.78;;;13.73
65180;BMP280;51849;47.476;8.084;2022-09-21T18:03:07;97041.91;;;13.07
65180;BMP280;51849;47.476;8.084;2022-09-21T18:05:38;97045.69;;;12.95
65180;BMP280;51849;47.476;8.084;2022-09-21T18:08:04;97056.34;;;12.86